Time;durP1;ratioP1;P1;durP2;ratioP2;P2;SDS_P1;SDS_P2;PMS_P1;PMS_P2;Temp;Humidity;BMP_temperature;BMP_pressure;BME280_temperature;BME280_humidity;BME280_pressure;Samples;Min_cycle;Max_cycle;Signal;HPM_P1;HPM_P2
2023/11/22 00:01:20;;;;;;;127.00;18.57;;;3.10;99.90;;;;;;5091771;28;19999;-75
2023/11/22 00:03:45;;;;;;;;;;;3.10;99.90;;;;;;5095066;28;20316;-75
2023/11/22 00:06:11;;;;;;;40.80;13.68;;;3.10;99.90;;;;;;5094533;28;20334;-75
2023/11/22 00:08:37;;;;;;;30.05;12.10;;;3.10;99.90;;;;;;5092650;28;20024;-75
2023/11/22 00:11:05;;;;;;;;;;;3.10;99.90;;;;;;5094081;28;20146;-76
2023/11/22 00:13:32;;;;;;;37.58;14.88;;;3.00;99.90;;;;;;5095049;28;19908;-75
2023/11/22 00:15:57;;;;;;;30.10;16.33;;;2.90;99.90;;;;;;5095207;28;20023;-75
2023/11/22 00:18:24;;;;;;;;;;;2.80;99.90;;;;;;5094308;28;20024;-75
2023/11/22 00:20:50;;;;;;;39.42;15.88;;;2.70;99.90;;;;;;5093288;28;20327;-76
2023/11/22 00:23:15;;;;;;;;;;;2.70;99.90;;;;;;5092696;28;20040;-75
2023/11/22 00:25:41;;;;;;;29.42;16.67;;;2.70;99.90;;;;;;5093708;28;19927;-76
2023/11/22 00:28:06;;;;;;;;;;;2.70;99.90;;;;;;5091438;28;20035;-75
2023/11/22 00:30:32;;;;;;;19.70;11.73;;;2.60;99.90;;;;;;5074496;28;19913;-75
2023/11/22 00:32:58;;;;;;;;;;;2.60;99.90;;;;;;5070821;28;20032;-74
2023/11/22 00:35:23;;;;;;;33.85;15.30;;;2.50;99.90;;;;;;5069947;28;20411;-75
2023/11/22 00:37:49;;;;;;;;;;;2.60;99.90;;;;;;5072007;28;20036;-76
2023/11/22 00:40:14;;;;;;;35.75;17.45;;;2.60;99.90;;;;;;5070268;28;20016;-75
2023/11/22 00:42:42;;;;;;;;;;;2.50;99.90;;;;;;5070944;28;20434;-75
2023/11/22 00:45:09;;;;;;;;;;;2.40;99.90;;;;;;5072667;28;20015;-75
2023/11/22 00:47:35;;;;;;;36.80;16.17;;;2.40;99.90;;;;;;5082358;28;19908;-75
2023/11/22 00:50:02;;;;;;;28.50;13.50;;;2.30;99.90;;;;;;5072672;28;20032;-75
2023/11/22 00:52:28;;;;;;;57.97;13.40;;;2.40;99.90;;;;;;5079061;28;20024;-75
2023/11/22 00:54:53;;;;;;;;;;;2.40;99.90;;;;;;5076381;28;20523;-76
2023/11/22 00:57:19;;;;;;;33.00;11.18;;;2.40;99.90;;;;;;5077102;28;19923;-76
2023/11/22 00:59:44;;;;;;;;;;;2.30;99.90;;;;;;5074347;28;20045;-73
2023/11/22 01:02:10;;;;;;;32.53;11.20;;;2.40;99.90;;;;;;5079783;28;19908;-76
2023/11/22 01:04:36;;;;;;;;;;;2.50;99.90;;;;;;5090771;28;20104;-76
2023/11/22 01:07:09;;;;;;;99.20;14.57;;;2.30;99.90;;;;;;5082319;28;19998;-75
2023/11/22 01:09:35;;;;;;;106.43;14.30;;;2.40;99.90;;;;;;5070381;28;20389;-75
2023/11/22 01:12:01;;;;;;;;;;;2.40;99.90;;;;;;5069561;28;20074;-76
2023/11/22 01:14:27;;;;;;;272.17;19.17;;;2.30;99.90;;;;;;5070574;28;19908;-75
2023/11/22 01:16:54;;;;;;;;;;;2.30;99.90;;;;;;5069512;28;20074;-75
2023/11/22 01:19:20;;;;;;;245.77;19.02;;;2.30;99.90;;;;;;5069159;28;20392;-75
2023/11/22 01:21:46;;;;;;;322.98;20.63;;;2.30;99.90;;;;;;5078994;28;20397;-76
2023/11/22 01:24:12;;;;;;;;;;;2.20;99.90;;;;;;5080811;28;20035;-74
2023/11/22 01:26:38;;;;;;;252.10;17.02;;;2.20;99.90;;;;;;5079143;28;19960;-74
2023/11/22 01:29:04;;;;;;;38.92;11.82;;;2.10;99.90;;;;;;5078589;28;20020;-76
2023/11/22 01:31:30;;;;;;;167.88;15.95;;;2.10;99.90;;;;;;5070122;28;20119;-75
2023/11/22 01:33:55;;;;;;;;;;;2.00;99.90;;;;;;5069392;28;20092;-75
2023/11/22 01:36:21;;;;;;;15.00;9.05;;;1.80;99.90;;;;;;5073087;28;19924;-76
2023/11/22 01:38:46;;;;;;;;;;;1.70;99.90;;;;;;5072408;28;20043;-75
2023/11/22 01:41:13;;;;;;;16.70;10.68;;;1.70;99.90;;;;;;5069234;28;19912;-75
2023/11/22 01:43:42;;;;;;;17.05;10.40;;;1.70;99.90;;;;;;5073876;28;20024;-75
2023/11/22 01:46:10;;;;;;;18.02;10.75;;;1.70;99.90;;;;;;5080200;28;20032;-75
2023/11/22 01:48:36;;;;;;;20.85;12.32;;;1.60;99.90;;;;;;5089837;28;20567;-75
2023/11/22 01:51:03;;;;;;;22.73;13.57;;;1.60;99.90;;;;;;5089798;28;20055;-74
2023/11/22 01:53:30;;;;;;;25.58;13.85;;;1.60;99.90;;;;;;5089975;28;20027;-76
2023/11/22 01:55:57;;;;;;;31.25;16.73;;;1.60;99.90;;;;;;5090373;28;20054;-75
2023/11/22 01:58:23;;;;;;;24.55;14.80;;;1.60;99.90;;;;;;5089018;28;20422;-75
2023/11/22 02:00:50;;;;;;;23.55;13.38;;;1.60;99.90;;;;;;5088125;28;20054;-75
2023/11/22 02:03:16;;;;;;;24.20;13.82;;;1.60;99.90;;;;;;5082110;28;20397;-75
2023/11/22 02:05:42;;;;;;;;;;;1.50;99.90;;;;;;5081502;28;20043;-75
2023/11/22 02:08:09;;;;;;;23.75;13.07;;;1.60;99.90;;;;;;5082632;28;20256;-75
2023/11/22 02:10:36;;;;;;;21.20;13.27;;;1.60;99.90;;;;;;5078553;28;20082;-75
2023/11/22 02:13:04;;;;;;;22.40;12.38;;;1.60;99.90;;;;;;5074605;28;20036;-75
2023/11/22 02:15:30;;;;;;;19.10;11.43;;;1.60;99.90;;;;;;5084790;28;20024;-75
2023/11/22 02:17:57;;;;;;;17.38;10.63;;;1.60;99.90;;;;;;5078403;28;20542;-75
2023/11/22 02:20:22;;;;;;;15.60;10.23;;;1.50;99.90;;;;;;5081800;28;20033;-75
2023/11/22 02:22:48;;;;;;;;;;;1.50;99.90;;;;;;5088928;28;20028;-75
2023/11/22 02:25:15;;;;;;;13.50;8.55;;;1.60;99.90;;;;;;5089294;28;19955;-75
2023/11/22 02:27:42;;;;;;;13.55;9.13;;;1.50;99.90;;;;;;5073789;28;20028;-76
2023/11/22 02:30:08;;;;;;;12.88;7.68;;;1.60;99.90;;;;;;5074780;28;20023;-77
2023/11/22 02:32:34;;;;;;;13.15;9.10;;;1.60;99.90;;;;;;5074035;28;20041;-76
2023/11/22 02:35:00;;;;;;;;;;;1.50;99.90;;;;;;5095533;28;20024;-76
2023/11/22 02:37:26;;;;;;;12.82;8.68;;;1.60;99.90;;;;;;5095572;28;19915;-76
2023/11/22 02:40:05;;;;;;;;;;;1.50;99.90;;;;;;5093771;28;20135;-75
2023/11/22 02:42:30;;;;;;;14.20;8.60;;;1.50;99.90;;;;;;5091951;28;19947;-75
2023/11/22 02:44:57;;;;;;;;;;;1.70;99.90;;;;;;5092522;28;20060;-75
2023/11/22 02:47:22;;;;;;;19.25;12.40;;;1.70;99.90;;;;;;5081875;28;19934;-75
2023/11/22 02:49:48;;;;;;;;;;;1.70;99.90;;;;;;5077392;28;20536;-74
2023/11/22 02:52:14;;;;;;;18.08;10.38;;;1.80;99.90;;;;;;5071575;28;19904;-74
2023/11/22 02:54:45;;;;;;;;;;;1.80;99.90;;;;;;5071796;28;20127;-74
2023/11/22 02:57:11;;;;;;;14.40;8.57;;;1.80;99.90;;;;;;5072994;28;19981;-75
2023/11/22 02:59:37;;;;;;;;;;;1.80;99.90;;;;;;5073295;28;20082;-75
2023/11/22 03:02:02;;;;;;;12.82;8.80;;;1.70;99.90;;;;;;5075035;28;19912;-75
2023/11/22 03:04:28;;;;;;;11.00;7.05;;;1.70;99.90;;;;;;5084083;28;20447;-75
2023/11/22 03:06:54;;;;;;;;;;;1.80;99.90;;;;;;5073153;28;20032;-75
2023/11/22 03:09:22;;;;;;;7.82;5.28;;;2.00;99.90;;;;;;5073066;28;19908;-75
2023/11/22 03:11:48;;;;;;;6.95;5.03;;;2.10;99.90;;;;;;5071724;28;20111;-75
2023/11/22 03:14:13;;;;;;;;;;;2.20;99.90;;;;;;5073664;28;20131;-76
2023/11/22 03:16:40;;;;;;;13.23;6.20;;;2.40;99.90;;;;;;5075079;28;20053;-76
2023/11/22 03:19:06;;;;;;;9.57;5.90;;;2.40;99.90;;;;;;5072094;28;20480;-74
2023/11/22 03:21:32;;;;;;;9.77;5.70;;;2.60;99.90;;;;;;5071274;28;20067;-75
2023/11/22 03:24:00;;;;;;;;;;;2.70;99.90;;;;;;5073007;28;20489;-75
2023/11/22 03:26:25;;;;;;;9.70;4.72;;;2.80;99.90;;;;;;5080620;28;19912;-74
2023/11/22 03:28:51;;;;;;;;;;;2.70;99.90;;;;;;5085094;28;20096;-74
2023/11/22 03:31:17;;;;;;;22.48;11.23;;;2.70;99.90;;;;;;5080397;28;19909;-74
2023/11/22 03:33:42;;;;;;;20.42;10.15;;;2.70;99.90;;;;;;5084217;28;20025;-75
2023/11/22 03:36:11;;;;;;;;;;;2.70;99.90;;;;;;5082729;28;20070;-75
2023/11/22 03:38:36;;;;;;;9.27;5.50;;;2.70;99.90;;;;;;5082361;28;19916;-75
2023/11/22 03:41:02;;;;;;;;;;;2.70;99.90;;;;;;5081042;28;20562;-75
2023/11/22 03:43:27;;;;;;;7.03;4.40;;;2.60;99.90;;;;;;5086596;28;19912;-74
2023/11/22 03:45:53;;;;;;;;;;;2.60;99.90;;;;;;5091202;28;20055;-75
2023/11/22 03:48:18;;;;;;;10.27;5.40;;;2.70;99.90;;;;;;5091585;28;20508;-75
2023/11/22 03:50:44;;;;;;;;;;;2.90;99.90;;;;;;5090845;28;20028;-74
2023/11/22 03:53:09;;;;;;;8.50;5.75;;;3.10;99.90;;;;;;5092585;28;19911;-74
2023/11/22 03:55:35;;;;;;;;;;;3.50;99.90;;;;;;5080039;28;20507;-74
2023/11/22 03:58:01;;;;;;;10.95;5.18;;;3.70;99.90;;;;;;5073698;28;20041;-75
2023/11/22 04:00:27;;;;;;;;;;;3.90;99.90;;;;;;5080578;28;20068;-75
2023/11/22 04:02:53;;;;;;;12.57;5.25;;;4.00;99.90;;;;;;5072617;28;19967;-75
2023/11/22 04:05:20;;;;;;;12.48;5.70;;;4.10;99.90;;;;;;5071560;28;20029;-75
2023/11/22 04:07:45;;;;;;;7.78;4.35;;;4.30;99.90;;;;;;5071570;28;20021;-74
2023/11/22 04:10:11;;;;;;;;;;;4.30;99.90;;;;;;5071964;28;20033;-74
2023/11/22 04:12:37;;;;;;;8.75;5.30;;;4.20;99.90;;;;;;5070182;28;19911;-75
2023/11/22 04:15:03;;;;;;;;;;;4.20;99.90;;;;;;5079539;28;20043;-74
2023/11/22 04:17:29;;;;;;;7.80;4.35;;;4.00;99.90;;;;;;5091699;28;19904;-75
2023/11/22 04:19:54;;;;;;;;;;;3.90;99.90;;;;;;5090728;28;20420;-75
2023/11/22 04:22:20;;;;;;;10.27;5.63;;;3.70;99.90;;;;;;5091652;28;19930;-75
2023/11/22 04:24:45;;;;;;;;;;;3.60;99.90;;;;;;5090812;28;20028;-75
2023/11/22 04:27:11;;;;;;;12.45;5.57;;;3.40;99.90;;;;;;5091499;28;20530;-76
2023/11/22 04:29:36;;;;;;;;;;;3.30;99.90;;;;;;5083252;28;20028;-75
2023/11/22 04:32:02;;;;;;;11.25;6.72;;;3.30;99.90;;;;;;5071644;28;20030;-76
2023/11/22 04:34:28;;;;;;;;;;;3.10;99.90;;;;;;5070292;28;20027;-76
2023/11/22 04:36:53;;;;;;;19.35;8.18;;;3.00;99.90;;;;;;5084935;28;20509;-75
2023/11/22 04:39:19;;;;;;;;;;;3.10;99.90;;;;;;5074277;28;20025;-75
2023/11/22 04:41:44;;;;;;;10.50;5.85;;;3.30;99.90;;;;;;5069563;28;20002;-75
2023/11/22 04:44:10;;;;;;;;;;;3.50;99.90;;;;;;5071790;28;20489;-75
2023/11/22 04:46:35;;;;;;;8.70;5.15;;;3.70;99.90;;;;;;5070822;28;19931;-75
2023/11/22 04:49:01;;;;;;;;;;;3.90;99.90;;;;;;5070252;28;20064;-75
2023/11/22 04:51:29;;;;;;;9.05;4.85;;;4.00;99.90;;;;;;5070386;28;19909;-75
2023/11/22 04:53:54;;;;;;;11.93;7.15;;;4.20;99.90;;;;;;5089697;28;20445;-75
2023/11/22 04:56:20;;;;;;;;;;;4.20;99.90;;;;;;5091872;28;20112;-74
2023/11/22 04:58:46;;;;;;;10.38;6.13;;;4.20;99.90;;;;;;5091226;28;19908;-75
2023/11/22 05:01:11;;;;;;;;;;;4.40;99.90;;;;;;5090904;28;20031;-75
2023/11/22 05:03:37;;;;;;;18.92;10.45;;;4.40;99.90;;;;;;5090083;28;19912;-76
2023/11/22 05:06:03;;;;;;;;;;;4.30;99.90;;;;;;5090677;28;20115;-74
2023/11/22 05:08:30;;;;;;;19.98;10.30;;;4.40;99.90;;;;;;5091531;28;19911;-75
2023/11/22 05:10:55;;;;;;;12.25;8.00;;;4.40;99.90;;;;;;5083515;28;20066;-75
2023/11/22 05:13:21;;;;;;;;;;;4.50;99.90;;;;;;5080153;28;20048;-75
2023/11/22 05:15:47;;;;;;;11.35;5.82;;;4.50;99.90;;;;;;5091694;28;20294;-75
2023/11/22 05:18:12;;;;;;;;;;;4.60;99.90;;;;;;5087326;28;20482;-76
2023/11/22 05:20:38;;;;;;;9.55;5.35;;;4.70;99.90;;;;;;5089555;28;19920;-75
2023/11/22 05:23:04;;;;;;;;;;;4.70;99.90;;;;;;5092099;28;20036;-75
2023/11/22 05:25:30;;;;;;;8.82;5.28;;;4.60;99.90;;;;;;5090486;28;19908;-74
2023/11/22 05:27:55;;;;;;;;;;;4.70;99.90;;;;;;5092421;28;20024;-75
2023/11/22 05:30:21;;;;;;;12.60;5.32;;;4.70;99.90;;;;;;5091464;28;20376;-75
2023/11/22 05:32:48;;;;;;;11.05;6.25;;;4.80;99.90;;;;;;5091156;28;20514;-74
2023/11/22 05:35:14;;;;;;;10.57;5.43;;;4.90;99.90;;;;;;5091124;28;20035;-75
2023/11/22 05:37:40;;;;;;;;;;;5.00;99.90;;;;;;5091415;28;20040;-75
2023/11/22 05:40:09;;;;;;;9.00;5.63;;;5.00;99.90;;;;;;5091919;28;20450;-75
2023/11/22 05:42:35;;;;;;;6.93;4.20;;;5.00;99.90;;;;;;5089213;28;20593;-76
2023/11/22 05:45:00;;;;;;;;;;;5.10;99.90;;;;;;5089297;28;20032;-76
2023/11/22 05:47:26;;;;;;;6.75;4.10;;;5.10;99.90;;;;;;5089101;28;19933;-75
2023/11/22 05:49:51;;;;;;;;;;;5.20;99.90;;;;;;5090708;28;20039;-75
2023/11/22 05:52:18;;;;;;;5.88;4.13;;;5.20;99.90;;;;;;5089332;28;19908;-75
2023/11/22 05:54:44;;;;;;;9.35;5.45;;;5.20;99.90;;;;;;5088307;28;20020;-75
2023/11/22 05:57:09;;;;;;;;;;;5.10;99.90;;;;;;5090620;28;20036;-75
2023/11/22 05:59:36;;;;;;;5.75;3.38;;;5.20;99.90;;;;;;5089867;28;19968;-75
2023/11/22 06:02:02;;;;;;;4.88;3.10;;;5.20;99.90;;;;;;5087307;28;20035;-75
2023/11/22 06:04:27;;;;;;;;;;;5.30;99.90;;;;;;5079773;28;20523;-75
2023/11/22 06:06:53;;;;;;;3.97;2.70;;;5.50;99.90;;;;;;5089759;28;20269;-75
2023/11/22 06:09:18;;;;;;;;;;;5.50;99.90;;;;;;5089470;28;20017;-75
2023/11/22 06:11:44;;;;;;;6.47;3.70;;;5.70;99.90;;;;;;5088682;28;19915;-75
2023/11/22 06:14:09;;;;;;;;;;;5.80;99.90;;;;;;5090700;28;20032;-75
2023/11/22 06:16:35;;;;;;;9.07;4.43;;;5.80;99.90;;;;;;5088728;28;19908;-75
2023/11/22 06:19:00;;;;;;;;;;;5.90;99.90;;;;;;5089216;28;20391;-75
2023/11/22 06:21:26;;;;;;;5.80;3.03;;;5.90;99.90;;;;;;5090085;28;19962;-74
2023/11/22 06:23:55;;;;;;;;;;;5.90;99.90;;;;;;5090644;28;20040;-74
2023/11/22 06:26:21;;;;;;;7.25;3.90;;;6.00;99.90;;;;;;5083599;28;20366;-75
2023/11/22 06:28:49;;;;;;;;;;;6.00;99.90;;;;;;5073159;28;20470;-75
2023/11/22 06:31:14;;;;;;;7.25;3.67;;;6.00;99.90;;;;;;5068434;28;19931;-75
2023/11/22 06:33:40;;;;;;;;;;;6.10;99.90;;;;;;5076146;28;20028;-75
2023/11/22 06:36:06;;;;;;;10.15;4.03;;;6.10;99.90;;;;;;5072136;28;19920;-76
2023/11/22 06:38:32;;;;;;;7.05;3.72;;;6.20;99.90;;;;;;5076572;28;20028;-76
2023/11/22 06:40:58;;;;;;;;;;;6.40;99.90;;;;;;5077580;28;20478;-75
2023/11/22 06:43:23;;;;;;;6.25;3.00;;;6.40;99.90;;;;;;5068543;28;19915;-74
2023/11/22 06:45:49;;;;;;;;;;;6.50;99.90;;;;;;5082352;28;20425;-75
2023/11/22 06:48:14;;;;;;;6.80;3.10;;;6.50;99.90;;;;;;5069941;28;20435;-75
2023/11/22 06:50:40;;;;;;;;;;;6.60;99.90;;;;;;5068437;28;20066;-75
2023/11/22 06:53:06;;;;;;;4.80;2.47;;;6.70;99.90;;;;;;5069682;28;20377;-75
2023/11/22 06:55:32;;;;;;;;;;;6.90;99.90;;;;;;5069678;28;20086;-76
2023/11/22 06:57:58;;;;;;;4.97;2.50;;;7.20;99.90;;;;;;5068318;28;19909;-75
2023/11/22 07:00:24;;;;;;;;;;;7.30;99.90;;;;;;5068487;28;20052;-75
2023/11/22 07:02:49;;;;;;;10.20;4.90;;;7.30;99.90;;;;;;5064314;28;19908;-74
2023/11/22 07:05:15;;;;;;;;;;;7.50;99.90;;;;;;5071463;28;20123;-75
2023/11/22 07:07:40;;;;;;;9.80;5.50;;;7.50;99.90;;;;;;5073111;28;19965;-73
2023/11/22 07:10:06;;;;;;;;;;;7.30;99.90;;;;;;5072089;28;20477;-75
2023/11/22 07:12:34;;;;;;;11.48;6.95;;;7.30;99.90;;;;;;5070023;28;20057;-74
2023/11/22 07:15:00;;;;;;;11.18;6.40;;;7.20;99.90;;;;;;5072759;28;20110;-74
2023/11/22 07:17:27;;;;;;;;;;;7.30;99.90;;;;;;5073465;28;20488;-75
2023/11/22 07:19:54;;;;;;;11.70;6.47;;;7.60;99.90;;;;;;5071601;28;19912;-74
2023/11/22 07:22:22;;;;;;;10.57;5.30;;;7.80;99.90;;;;;;5071648;28;20037;-75
2023/11/22 07:24:50;;;;;;;9.68;5.88;;;7.70;99.90;;;;;;5077254;28;20027;-75
2023/11/22 07:27:17;;;;;;;12.55;7.22;;;7.50;99.90;;;;;;5077163;28;20031;-75
2023/11/22 07:29:43;;;;;;;11.07;6.63;;;7.60;99.90;;;;;;5072115;28;20028;-76
2023/11/22 07:32:09;;;;;;;7.55;4.88;;;7.80;99.90;;;;;;5072214;28;20056;-75
2023/11/22 07:34:36;;;;;;;7.82;4.25;;;8.10;99.90;;;;;;5071981;28;20481;-76
2023/11/22 07:37:02;;;;;;;7.65;4.40;;;8.50;99.90;;;;;;5073202;28;20064;-75
2023/11/22 07:39:28;;;;;;;;;;;8.90;99.90;;;;;;5093700;28;20793;-75
2023/11/22 07:41:54;;;;;;;6.13;3.72;;;9.20;99.90;;;;;;5092633;28;19908;-75
2023/11/22 07:44:27;;;;;;;7.65;4.10;;;9.50;99.90;;;;;;5091803;28;20028;-74
2023/11/22 07:46:53;;;;;;;6.15;3.30;;;9.60;99.90;;;;;;5087676;28;20081;-75
2023/11/22 07:49:21;;;;;;;6.25;2.92;;;9.80;99.90;;;;;;5086571;28;20038;-75
2023/11/22 07:51:47;;;;;;;6.53;3.80;;;10.00;99.90;;;;;;5093817;28;20404;-76
2023/11/22 07:54:15;;;;;;;;;;;10.00;99.90;;;;;;5090481;28;20031;-76
2023/11/22 07:56:43;;;;;;;7.85;3.70;;;10.20;99.90;;;;;;5072714;28;19919;-76
2023/11/22 07:59:11;;;;;;;7.78;3.78;;;10.40;99.90;;;;;;5072355;28;20091;-75
2023/11/22 08:01:37;;;;;;;11.13;4.97;;;10.50;99.90;;;;;;5080454;28;20069;-75
2023/11/22 08:04:05;;;;;;;7.95;4.75;;;10.50;99.90;;;;;;5091209;28;20024;-76
2023/11/22 08:06:34;;;;;;;7.95;5.13;;;10.50;99.90;;;;;;5092434;28;20024;-75
2023/11/22 08:09:01;;;;;;;6.90;3.72;;;10.40;99.90;;;;;;5092214;28;20393;-75
2023/11/22 08:11:27;;;;;;;5.70;3.60;;;10.40;99.90;;;;;;5090917;28;20119;-76
2023/11/22 08:13:55;;;;;;;5.25;3.22;;;10.20;99.90;;;;;;5084927;28;20024;-75
2023/11/22 08:16:20;;;;;;;6.35;3.70;;;10.00;99.90;;;;;;5073922;28;20417;-75
2023/11/22 08:18:46;;;;;;;;;;;10.00;99.90;;;;;;5079707;28;20024;-75
2023/11/22 08:21:12;;;;;;;7.32;4.03;;;9.90;99.90;;;;;;5076196;28;19947;-75
2023/11/22 08:23:37;;;;;;;;;;;9.90;99.90;;;;;;5082095;28;20032;-76
2023/11/22 08:26:04;;;;;;;7.60;3.83;;;9.80;99.90;;;;;;5070245;28;19908;-75
2023/11/22 08:28:30;;;;;;;7.00;4.07;;;9.80;99.90;;;;;;5075610;28;20527;-75
2023/11/22 08:30:55;;;;;;;;;;;9.80;99.90;;;;;;5071592;28;20025;-76
2023/11/22 08:33:22;;;;;;;5.05;2.97;;;9.80;99.90;;;;;;5071532;28;20488;-75
2023/11/22 08:35:50;;;;;;;8.48;4.30;;;9.70;99.90;;;;;;5070945;28;20060;-75
2023/11/22 08:38:17;;;;;;;14.95;7.57;;;9.70;99.90;;;;;;5072185;28;20024;-75
2023/11/22 08:40:42;;;;;;;20.50;10.32;;;9.70;99.90;;;;;;5078525;28;20136;-75
2023/11/22 08:43:08;;;;;;;;;;;9.70;99.90;;;;;;5071461;28;20100;-75
2023/11/22 08:45:34;;;;;;;12.90;6.50;;;9.80;99.90;;;;;;5069650;28;20369;-76
2023/11/22 08:48:00;;;;;;;11.35;5.75;;;9.90;99.90;;;;;;5069640;28;20020;-75
2023/11/22 08:50:25;;;;;;;;;;;9.90;99.90;;;;;;5071388;28;20552;-75
2023/11/22 08:52:52;;;;;;;11.77;6.50;;;10.00;99.90;;;;;;5069787;28;19953;-76
2023/11/22 08:55:21;;;;;;;12.35;7.13;;;10.10;99.90;;;;;;5081169;28;20028;-76
2023/11/22 08:57:48;;;;;;;12.25;6.97;;;10.10;99.90;;;;;;5082115;28;20046;-75
2023/11/22 09:00:14;;;;;;;13.55;8.38;;;10.10;99.90;;;;;;5080834;28;20071;-76
2023/11/22 09:02:40;;;;;;;10.35;6.18;;;10.00;99.90;;;;;;5070358;28;20055;-75
2023/11/22 09:05:08;;;;;;;;;;;10.00;99.90;;;;;;5070020;28;20033;-75
2023/11/22 09:07:35;;;;;;;7.85;4.18;;;9.90;99.90;;;;;;5070974;28;19909;-76
2023/11/22 09:10:09;;;;;;;7.50;4.07;;;9.80;99.90;;;;;;5073422;28;20516;-76
2023/11/22 09:12:39;;;;;;;7.63;4.13;;;9.80;99.90;;;;;;5079825;28;20409;-76
2023/11/22 09:15:09;;;;;;;8.93;4.22;;;9.90;99.90;;;;;;5079209;28;20036;-75
2023/11/22 09:17:43;;;;;;;5.25;2.38;;;9.90;99.90;;;;;;5080704;28;20106;-75
2023/11/22 09:20:19;;;;;;;4.70;1.27;;;10.10;99.90;;;;;;5077733;28;20405;-75
2023/11/22 09:22:50;;;;;;;3.00;1.55;;;10.70;99.30;;;;;;5079936;28;20012;-75
2023/11/22 09:25:16;;;;;;;12.32;7.15;;;10.90;98.90;;;;;;5080639;28;20575;-74
2023/11/22 09:27:46;;;;;;;4.88;2.58;;;10.70;99.20;;;;;;5081977;28;20031;-75
2023/11/22 09:30:19;;;;;;;7.13;4.10;;;10.40;99.90;;;;;;5080535;28;20032;-76
2023/11/22 09:32:47;;;;;;;9.82;5.97;;;10.20;99.90;;;;;;5079350;28;20041;-75
2023/11/22 09:35:15;;;;;;;11.98;6.95;;;10.10;99.90;;;;;;5080977;28;20032;-75
2023/11/22 09:37:44;;;;;;;12.27;6.38;;;10.10;99.90;;;;;;5079499;28;20044;-76
2023/11/22 09:40:12;;;;;;;11.70;6.60;;;10.10;99.90;;;;;;5081909;28;21036;-76
2023/11/22 09:42:37;;;;;;;9.85;6.38;;;10.00;99.90;;;;;;5079552;28;20024;-76
2023/11/22 09:45:03;;;;;;;;;;;10.00;99.90;;;;;;5078907;28;20080;-75
2023/11/22 09:47:34;;;;;;;6.85;4.03;;;10.00;99.90;;;;;;5080032;28;19904;-75
2023/11/22 09:50:05;;;;;;;7.45;3.90;;;9.90;99.90;;;;;;5078655;28;20481;-76
2023/11/22 09:52:33;;;;;;;9.57;3.50;;;9.90;99.90;;;;;;5081602;28;20016;-75
2023/11/22 09:54:59;;;;;;;8.02;3.88;;;9.90;99.90;;;;;;5080968;28;20382;-76
2023/11/22 09:57:29;;;;;;;6.55;3.45;;;9.90;99.90;;;;;;5081874;28;20027;-75
2023/11/22 09:59:57;;;;;;;9.77;4.40;;;10.30;99.90;;;;;;5080810;28;20115;-75
2023/11/22 10:02:26;;;;;;;11.57;4.53;;;10.20;99.90;;;;;;5079101;28;20035;-75
2023/11/22 10:04:56;;;;;;;10.75;5.22;;;10.20;99.90;;;;;;5080773;28;20052;-75
2023/11/22 10:07:22;;;;;;;10.85;4.95;;;10.20;99.90;;;;;;5080007;28;20020;-77
2023/11/22 10:09:48;;;;;;;9.02;3.92;;;10.30;99.90;;;;;;5080764;28;20553;-76
2023/11/22 10:12:20;;;;;;;6.03;3.33;;;10.30;99.90;;;;;;5079961;28;20028;-75
2023/11/22 10:14:47;;;;;;;9.35;3.88;;;10.20;99.90;;;;;;5078966;28;20056;-76
2023/11/22 10:17:15;;;;;;;7.60;3.85;;;10.20;99.90;;;;;;5081366;28;20028;-75
2023/11/22 10:19:40;;;;;;;5.88;2.83;;;10.10;99.90;;;;;;5079486;28;20045;-75
2023/11/22 10:22:07;;;;;;;;;;;10.10;99.90;;;;;;5078717;28;20028;-76
2023/11/22 10:24:36;;;;;;;3.60;1.95;;;10.10;99.90;;;;;;5071970;28;20002;-76
2023/11/22 10:27:02;;;;;;;3.45;1.50;;;10.00;99.90;;;;;;5068377;28;20029;-76
2023/11/22 10:29:29;;;;;;;6.60;2.67;;;10.00;99.90;;;;;;5069769;28;20028;-76
2023/11/22 10:31:55;;;;;;;5.47;2.50;;;10.00;98.40;;;;;;5077495;28;20066;-75
2023/11/22 10:34:24;;;;;;;6.60;3.40;;;10.00;99.90;;;;;;5072139;28;20032;-76
2023/11/22 10:36:50;;;;;;;10.07;5.32;;;9.90;99.90;;;;;;5069625;28;20097;-76
2023/11/22 10:39:20;;;;;;;;;;;9.90;99.90;;;;;;5090282;28;20028;-75
2023/11/22 10:41:46;;;;;;;7.07;1.80;;;9.90;99.90;;;;;;5088638;28;20380;-75
2023/11/22 10:44:12;;;;;;;4.07;1.77;;;9.90;99.90;;;;;;5073460;28;20104;-76
2023/11/22 10:46:39;;;;;;;;;;;9.90;99.90;;;;;;5074010;28;20107;-75
2023/11/22 10:49:05;;;;;;;3.28;1.60;;;9.90;99.90;;;;;;5089473;28;19995;-75
2023/11/22 10:51:32;;;;;;;;;;;10.00;99.90;;;;;;5074785;28;20134;-75
2023/11/22 10:54:00;;;;;;;6.32;2.35;;;10.00;99.90;;;;;;5089481;28;19912;-75
2023/11/22 10:56:28;;;;;;;3.92;1.65;;;10.00;99.90;;;;;;5073650;28;20539;-75
2023/11/22 10:58:57;;;;;;;3.13;1.35;;;10.00;99.90;;;;;;5073237;28;20035;-76
2023/11/22 11:01:31;;;;;;;8.90;1.42;;;10.00;99.90;;;;;;5073033;28;20504;-75
2023/11/22 11:04:06;;;;;;;3.83;1.23;;;10.00;99.90;;;;;;5073247;28;20107;-75
2023/11/22 11:06:34;;;;;;;3.35;1.80;;;10.00;99.90;;;;;;5088533;28;20024;-76
2023/11/22 11:09:05;;;;;;;3.95;1.60;;;10.00;99.90;;;;;;5073036;28;20440;-75
2023/11/22 11:11:32;;;;;;;4.25;2.20;;;10.00;99.90;;;;;;5088772;28;20103;-75
2023/11/22 11:13:59;;;;;;;3.80;1.92;;;10.00;99.90;;;;;;5079183;28;20092;-76
2023/11/22 11:16:26;;;;;;;7.13;3.78;;;10.00;99.90;;;;;;5076665;28;20024;-75
2023/11/22 11:18:53;;;;;;;4.47;2.33;;;10.00;99.90;;;;;;5071381;28;20074;-76
2023/11/22 11:21:19;;;;;;;5.30;2.92;;;9.90;99.90;;;;;;5078119;28;20036;-76
2023/11/22 11:23:44;;;;;;;;;;;9.90;99.90;;;;;;5082850;28;20024;-76
2023/11/22 11:26:22;;;;;;;4.00;1.70;;;9.80;99.90;;;;;;5072727;28;20366;-76
2023/11/22 11:28:51;;;;;;;3.28;1.38;;;9.80;99.90;;;;;;5071711;28;20025;-75
2023/11/22 11:31:20;;;;;;;7.93;3.10;;;9.90;99.90;;;;;;5082989;28;20041;-76
2023/11/22 11:33:48;;;;;;;4.97;2.75;;;9.90;99.90;;;;;;5073122;28;20112;-75
2023/11/22 11:36:32;;;;;;;7.35;4.65;;;9.90;99.90;;;;;;5073235;28;20083;-75
2023/11/22 11:39:14;;;;;;;3.80;1.98;;;9.90;99.90;;;;;;5083768;28;20028;-75
2023/11/22 11:41:41;;;;;;;3.85;1.70;;;9.80;99.90;;;;;;5091219;28;20496;-75
2023/11/22 11:44:09;;;;;;;3.03;1.73;;;9.80;99.90;;;;;;5090792;28;20035;-76
2023/11/22 11:46:36;;;;;;;3.58;2.00;;;9.80;99.90;;;;;;5091667;28;20028;-76
2023/11/22 11:49:07;;;;;;;4.07;2.25;;;9.80;99.90;;;;;;5093195;28;20030;-75
2023/11/22 11:51:33;;;;;;;4.20;1.80;;;9.80;99.90;;;;;;5092069;28;20501;-76
2023/11/22 11:53:58;;;;;;;;;;;9.80;99.90;;;;;;5093895;28;20032;-75
2023/11/22 11:56:26;;;;;;;2.60;1.13;;;9.80;99.90;;;;;;5092832;28;19915;-75
2023/11/22 11:58:55;;;;;;;3.38;1.50;;;9.80;99.90;;;;;;5091152;28;20082;-76
2023/11/22 12:01:21;;;;;;;4.50;1.30;;;9.80;99.90;;;;;;5090908;28;20462;-76
2023/11/22 12:03:47;;;;;;;;;;;9.80;99.90;;;;;;5091559;28;20036;-75
2023/11/22 12:06:17;;;;;;;2.63;1.10;;;9.80;99.90;;;;;;5092611;28;20692;-75
2023/11/22 12:08:47;;;;;;;129.70;60.35;;;9.80;99.90;;;;;;5090505;28;20086;-76
2023/11/22 12:11:15;;;;;;;5.90;3.20;;;10.00;99.80;;;;;;5082991;28;20021;-75
2023/11/22 12:13:46;;;;;;;2.60;1.45;;;10.30;98.70;;;;;;5073737;28;20115;-75
2023/11/22 12:16:16;;;;;;;22.20;11.43;;;10.30;97.80;;;;;;5074160;28;20020;-76
2023/11/22 12:18:44;;;;;;;11.23;6.07;;;10.30;97.90;;;;;;5073787;28;20443;-76
2023/11/22 12:21:13;;;;;;;2.17;1.17;;;10.30;98.10;;;;;;5075947;28;20044;-77
2023/11/22 12:23:40;;;;;;;3.25;1.70;;;10.30;97.90;;;;;;5074327;28;20013;-76
2023/11/22 12:26:11;;;;;;;5.32;2.25;;;10.30;98.10;;;;;;5072405;28;20032;-75
2023/11/22 12:28:40;;;;;;;4.45;2.15;;;10.50;98.00;;;;;;5070991;28;20032;-76
2023/11/22 12:31:10;;;;;;;5.80;2.75;;;10.40;98.60;;;;;;5074262;28;20017;-76
2023/11/22 12:33:41;;;;;;;8.05;3.83;;;10.50;98.00;;;;;;5091981;28;20040;-76
2023/11/22 12:36:09;;;;;;;8.27;3.53;;;10.50;98.40;;;;;;5091666;28;20059;-75
2023/11/22 12:38:35;;;;;;;3.60;1.70;;;10.30;99.00;;;;;;5081724;28;20051;-75
2023/11/22 12:41:06;;;;;;;7.28;3.58;;;10.40;98.90;;;;;;5071572;28;20025;-76
2023/11/22 12:43:32;;;;;;;7.60;4.43;;;10.30;99.50;;;;;;5071713;28;20059;-76
2023/11/22 12:46:03;;;;;;;8.93;3.75;;;10.20;99.90;;;;;;5071279;28;20574;-76
2023/11/22 12:48:32;;;;;;;11.82;5.75;;;10.20;99.90;;;;;;5071230;28;20444;-75
2023/11/22 12:50:59;;;;;;;13.20;5.63;;;10.30;99.90;;;;;;5069706;28;20055;-76
2023/11/22 12:53:27;;;;;;;6.40;2.72;;;10.30;99.90;;;;;;5069829;28;20488;-76
2023/11/22 12:55:56;;;;;;;4.55;2.17;;;10.20;99.90;;;;;;5071720;28;20025;-76
2023/11/22 12:58:24;;;;;;;4.18;2.00;;;10.30;99.90;;;;;;5071726;28;20024;-76
2023/11/22 13:00:54;;;;;;;5.53;3.05;;;10.20;99.90;;;;;;5070929;28;20033;-76
2023/11/22 13:03:19;;;;;;;8.13;3.83;;;10.20;99.90;;;;;;5069810;28;20400;-76
2023/11/22 13:05:45;;;;;;;;;;;10.00;99.90;;;;;;5073056;28;20029;-76
2023/11/22 13:08:13;;;;;;;7.30;4.05;;;9.90;99.90;;;;;;5071091;28;19931;-74
2023/11/22 13:10:43;;;;;;;7.80;4.70;;;9.90;99.90;;;;;;5071216;28;20048;-76